Terminal Aerodrome Forecast
Issued by NWS Wilmington, NC

Home | Current Version | Previous Version | Text Only | Print | Product List | Glossary On
Versions: 1 2 3 4 5 6 7 8 9 10 11 12 13 14 15 16
000
FTUS42 KILM 010500
TAFLBT
TAF
KLBT 010520Z 0106/0206 05007KT P6SM BKN020
     FM010900 04008KT P6SM -RA BKN015 OVC070
      TEMPO 0110/0113 5SM -FZRA
     FM011400 06005KT 6SM -RA BKN006 OVC012
     FM012100 02006KT 2SM -RA BR BKN006=

USA.gov is the U.S. government's official web portal to all federal, state and local government web resources and services.